Strona główna
METAR-TAF:

METAR-TAF

Lotnisko :

Port lotniczy Heringsdorf

Heringsdorf, Niemcy

Szerokość geograficzna: 53-53N, Długość geograficzna: 014-09E, wysokość: 28 m

Aktualna obserwacja pogody

Raport powstał 13 godziny i 24 minut temu, godzina 13:20 UTC
Wiatr 4 kt od południowy wschód
Temperatura 18°C
Wilgotność 52%
Ciśnienie 1019 hPa
Widzialność 10 km lub więcej
Brak chmur poniżej 1500 m i brak chmur cumulonimbus

METAR: EDAH 171320Z 14004KT CAVOK 18/08 Q1019

czas: 04:44 (02:44 UTC)

Prognoza

Raport powstał 12 godziny i 44 minut temu, godzina 14:00 UTC
Prognoza ważna od 17 godzina 15 UTC do 17 godzina 24 UTC
Wiatr 3 kt z kierunków zmiennych
Widzialność 10 km lub więcej
Brak chmur poniżej 1500 m i brak chmur cumulonimbus
Stopniowe zmiany
od 17 godzina 22 UTC do 17 godzina 24 UTC
Widzialność: 4800 m
zamglenie

TAF: EDAH 171400Z 1715/1724 VRB03KT CAVOK BECMG 1722/1724 4800 BR

Obserwacja i prognoza pogody dla ponad 4000 lotnisk (raport METAR i TAF).

Dostępne stacje oznaczono żółtymi i czerwonymi punktami na mapie.

Najedź kursorem aby zobaczyć nazwę stacji.

Kliknij aby zobaczyć obserwacje i prognozy pogody.

Aby zmienić mapę: kliknij na zielony przycisk z czarnym krzyżykiem, aby powiększyć; na zielony przycisk z myślnikiem, aby pomniejszyć; na zielone strzałki, aby przejść do map sąsiednich.


METAR-TAF: